createdAt,value
2023-04-27T00:04:04.086Z,102200.00
2023-04-27T00:14:28.456Z,102190.00
2023-04-27T00:24:51.332Z,102189.00
2023-04-27T00:35:12.714Z,102192.00
2023-04-27T00:45:42.633Z,102191.00
2023-04-27T00:56:04.474Z,102206.00
2023-04-27T01:06:29.751Z,102218.00
2023-04-27T01:16:52.804Z,102216.00
2023-04-27T01:27:15.911Z,102221.00
2023-04-27T01:37:39.008Z,102227.00
2023-04-27T01:48:01.996Z,102243.00
2023-04-27T01:58:24.219Z,102249.00
2023-04-27T02:08:47.417Z,102259.00
2023-04-27T02:19:08.879Z,102264.00
2023-04-27T02:29:34.875Z,102268.00
2023-04-27T02:39:58.766Z,102277.00
2023-04-27T02:50:21.911Z,102281.00
2023-04-27T03:00:43.955Z,102281.00
2023-04-27T03:11:07.223Z,102276.00
2023-04-27T03:21:31.781Z,102280.00
2023-04-27T03:31:54.973Z,102291.00
2023-04-27T03:42:16.850Z,102309.00
2023-04-27T03:52:39.512Z,102309.00
2023-04-27T04:03:01.749Z,102332.00
2023-04-27T04:13:25.359Z,102331.00
2023-04-27T04:23:47.378Z,102336.00
2023-04-27T04:35:13.632Z,102343.00
2023-04-27T04:45:36.538Z,102347.00
2023-04-27T04:55:58.379Z,102353.00
2023-04-27T05:06:22.517Z,102370.00
2023-04-27T05:16:44.123Z,102360.00
2023-04-27T05:27:07.118Z,102354.00
2023-04-27T05:37:29.217Z,102348.00
2023-04-27T05:47:52.151Z,102359.00
2023-04-27T05:58:14.015Z,102368.00
2023-04-27T06:08:37.419Z,102366.00
2023-04-27T06:18:58.650Z,102368.00
2023-04-27T06:29:21.603Z,102387.00
2023-04-27T06:39:44.321Z,102376.00
2023-04-27T06:50:07.868Z,102335.00
2023-04-27T07:00:30.150Z,102363.00
2023-04-27T07:10:53.449Z,102367.00
2023-04-27T07:21:14.743Z,102377.00
2023-04-27T07:31:37.661Z,102378.00
2023-04-27T07:41:59.259Z,102364.00
2023-04-27T07:52:22.173Z,102348.00
2023-04-27T08:02:44.334Z,102371.00
2023-04-27T08:13:09.797Z,102382.00
2023-04-27T08:23:32.958Z,102392.00
2023-04-27T08:33:57.469Z,102411.00
2023-04-27T08:44:19.209Z,102385.00
2023-04-27T08:54:42.014Z,102390.00
2023-04-27T09:05:04.129Z,102406.00
2023-04-27T09:15:27.135Z,102405.00
2023-04-27T09:25:49.114Z,102399.00
2023-04-27T09:36:12.551Z,102389.00
2023-04-27T09:46:34.771Z,102377.00
2023-04-27T09:57:13.713Z,102347.00
2023-04-27T10:07:36.358Z,102360.00
2023-04-27T10:18:05.712Z,102369.00
2023-04-27T10:28:27.960Z,102374.00
2023-04-27T10:38:57.502Z,102373.00
2023-04-27T10:49:19.473Z,102354.00
2023-04-27T10:59:51.869Z,102348.00
2023-04-27T11:10:16.817Z,102308.00
2023-04-27T11:20:40.109Z,102326.00
2023-04-27T11:31:01.997Z,102329.00
2023-04-27T11:41:24.734Z,102330.00
2023-04-27T11:51:48.682Z,102318.00
2023-04-27T12:02:11.921Z,102337.00
2023-04-27T12:12:33.521Z,102335.00
2023-04-27T12:22:57.751Z,102342.00
2023-04-27T12:33:19.190Z,102361.00
2023-04-27T12:43:43.579Z,102337.00
2023-04-27T12:54:06.399Z,102310.00
2023-04-27T13:04:30.656Z,102311.00
2023-04-27T13:14:52.475Z,102331.00
2023-04-27T13:25:16.639Z,102343.00
2023-04-27T13:35:38.062Z,102327.00
2023-04-27T13:46:01.570Z,102339.00
2023-04-27T13:56:22.886Z,102339.00
2023-04-27T14:06:46.628Z,102329.00
2023-04-27T14:17:08.306Z,102334.00
2023-04-27T14:27:31.786Z,102327.00
2023-04-27T14:37:53.500Z,102352.00
2023-04-27T14:48:16.452Z,102337.00
2023-04-27T14:58:39.001Z,102353.00
2023-04-27T15:09:03.941Z,102345.00
2023-04-27T15:19:25.264Z,102337.00
2023-04-27T15:29:49.272Z,102352.00
2023-04-27T15:40:12.618Z,102329.00
2023-04-27T15:50:35.662Z,102306.00
2023-04-27T16:00:57.661Z,102304.00
2023-04-27T16:11:20.845Z,102316.00
2023-04-27T16:21:42.225Z,102319.00
2023-04-27T16:32:05.475Z,102325.00
2023-04-27T16:42:29.065Z,102285.00
2023-04-27T16:52:51.952Z,102282.00
2023-04-27T17:03:14.895Z,102274.00
2023-04-27T17:13:38.126Z,102289.00
2023-04-27T17:23:59.771Z,102301.00
2023-04-27T17:34:23.903Z,102299.00
2023-04-27T17:44:45.527Z,102296.00
2023-04-27T17:55:08.925Z,102318.00
2023-04-27T18:05:30.811Z,102333.00
2023-04-27T18:15:54.625Z,102354.00
2023-04-27T18:26:16.529Z,102370.00
2023-04-27T18:36:39.635Z,102393.00
2023-04-27T18:47:01.731Z,102411.00
2023-04-27T18:57:26.460Z,102421.00
2023-04-27T19:07:47.911Z,102437.00
2023-04-27T19:18:11.657Z,102447.00
2023-04-27T19:28:33.592Z,102445.00
2023-04-27T19:38:56.779Z,102446.00
2023-04-27T19:49:18.031Z,102448.00
2023-04-27T19:59:40.825Z,102463.00
2023-04-27T20:10:03.035Z,102458.00
2023-04-27T20:20:26.258Z,102450.00
2023-04-27T20:30:47.570Z,102462.00
2023-04-27T20:41:10.542Z,102438.00
2023-04-27T20:51:32.825Z,102439.00
2023-04-27T21:01:56.325Z,102439.00
2023-04-27T21:12:17.772Z,102447.00
2023-04-27T21:22:41.077Z,102438.00
2023-04-27T21:33:03.295Z,102441.00
2023-04-27T21:43:26.318Z,102436.00
2023-04-27T21:53:47.685Z,102436.00
2023-04-27T22:04:10.746Z,102443.00
2023-04-27T22:14:32.662Z,102448.00
2023-04-27T22:24:55.457Z,102452.00
2023-04-27T23:12:34.818Z,102454.00
2023-04-27T23:23:54.966Z,102441.00
2023-04-27T23:34:42.003Z,102421.00
2023-04-27T23:45:06.679Z,102426.00
2023-04-27T23:55:37.372Z,102411.00
